sensor_id;sensor_type;location;lat;lon;timestamp;pressure;altitude;pressure_sealevel;temperature;humidity
59789;BME280;47353;51.614;5.530;2024-01-15T00:00:33;100296.59;;;1.24;100.00
59789;BME280;47353;51.614;5.530;2024-01-15T00:02:58;100295.00;;;1.34;100.00
59789;BME280;47353;51.614;5.530;2024-01-15T00:05:24;100288.03;;;1.20;100.00
59789;BME280;47353;51.614;5.530;2024-01-15T00:07:49;100281.00;;;1.31;100.00
59789;BME280;47353;51.614;5.530;2024-01-15T00:10:15;100277.47;;;1.12;100.00
59789;BME280;47353;51.614;5.530;2024-01-15T00:12:40;100272.84;;;1.13;100.00
59789;BME280;47353;51.614;5.530;2024-01-15T00:15:06;100262.59;;;0.97;100.00
59789;BME280;47353;51.614;5.530;2024-01-15T00:17:31;100265.00;;;0.87;100.00
59789;BME280;47353;51.614;5.530;2024-01-15T00:19:57;100276.34;;;1.02;100.00
59789;BME280;47353;51.614;5.530;2024-01-15T00:22:25;100273.94;;;0.94;100.00
59789;BME280;47353;51.614;5.530;2024-01-15T00:24:50;100269.84;;;1.03;100.00
59789;BME280;47353;51.614;5.530;2024-01-15T00:27:16;100269.19;;;0.89;100.00
59789;BME280;47353;51.614;5.530;2024-01-15T00:29:41;100259.28;;;0.77;100.00
59789;BME280;47353;51.614;5.530;2024-01-15T00:32:06;100259.56;;;0.87;100.00
59789;BME280;47353;51.614;5.530;2024-01-15T00:34:32;100261.69;;;0.85;100.00
59789;BME280;47353;51.614;5.530;2024-01-15T00:36:57;100251.31;;;0.93;100.00
59789;BME280;47353;51.614;5.530;2024-01-15T00:39:23;100243.91;;;0.82;100.00
59789;BME280;47353;51.614;5.530;2024-01-15T00:41:48;100238.44;;;0.82;100.00
59789;BME280;47353;51.614;5.530;2024-01-15T00:44:14;100235.34;;;0.79;100.00
59789;BME280;47353;51.614;5.530;2024-01-15T00:46:46;100241.13;;;0.71;100.00
59789;BME280;47353;51.614;5.530;2024-01-15T00:49:14;100236.25;;;0.73;100.00
59789;BME280;47353;51.614;5.530;2024-01-15T00:51:40;100239.16;;;0.60;100.00
59789;BME280;47353;51.614;5.530;2024-01-15T00:54:06;100229.47;;;0.64;100.00
59789;BME280;47353;51.614;5.530;2024-01-15T00:56:31;100226.53;;;0.47;100.00
59789;BME280;47353;51.614;5.530;2024-01-15T00:58:57;100233.25;;;0.63;100.00
59789;BME280;47353;51.614;5.530;2024-01-15T01:01:22;100232.81;;;0.66;100.00
59789;BME280;47353;51.614;5.530;2024-01-15T01:03:47;100229.53;;;0.57;100.00
59789;BME280;47353;51.614;5.530;2024-01-15T01:06:13;100221.09;;;0.47;100.00
59789;BME280;47353;51.614;5.530;2024-01-15T01:08:39;100213.81;;;0.41;100.00
59789;BME280;47353;51.614;5.530;2024-01-15T01:11:04;100227.13;;;0.49;100.00
59789;BME280;47353;51.614;5.530;2024-01-15T01:13:32;100220.75;;;0.37;100.00
59789;BME280;47353;51.614;5.530;2024-01-15T01:15:58;100225.81;;;0.16;100.00
59789;BME280;47353;51.614;5.530;2024-01-15T01:18:23;100218.53;;;0.10;100.00
59789;BME280;47353;51.614;5.530;2024-01-15T01:20:48;100223.19;;;0.45;100.00
59789;BME280;47353;51.614;5.530;2024-01-15T01:23:14;100216.84;;;0.51;100.00
59789;BME280;47353;51.614;5.530;2024-01-15T01:25:39;100217.69;;;0.34;100.00
59789;BME280;47353;51.614;5.530;2024-01-15T01:28:05;100214.84;;;0.40;100.00
59789;BME280;47353;51.614;5.530;2024-01-15T01:30:30;100217.44;;;0.35;100.00
59789;BME280;47353;51.614;5.530;2024-01-15T01:32:56;100209.00;;;0.43;100.00
59789;BME280;47353;51.614;5.530;2024-01-15T01:35:22;100220.84;;;0.31;100.00
59789;BME280;47353;51.614;5.530;2024-01-15T01:37:47;100216.22;;;0.31;100.00
59789;BME280;47353;51.614;5.530;2024-01-15T01:40:13;100215.53;;;0.18;100.00
59789;BME280;47353;51.614;5.530;2024-01-15T01:42:38;100227.34;;;0.30;100.00
59789;BME280;47353;51.614;5.530;2024-01-15T01:45:04;100223.41;;;0.26;100.00
59789;BME280;47353;51.614;5.530;2024-01-15T01:47:29;100216.22;;;0.13;100.00
59789;BME280;47353;51.614;5.530;2024-01-15T01:49:55;100216.50;;;0.05;100.00
59789;BME280;47353;51.614;5.530;2024-01-15T01:52:21;100232.31;;;0.15;100.00
59789;BME280;47353;51.614;5.530;2024-01-15T01:54:47;100232.66;;;0.25;100.00
59789;BME280;47353;51.614;5.530;2024-01-15T01:57:13;100222.50;;;0.14;100.00
59789;BME280;47353;51.614;5.530;2024-01-15T01:59:39;100218.09;;;0.13;100.00
59789;BME280;47353;51.614;5.530;2024-01-15T02:02:05;100227.50;;;0.17;100.00
59789;BME280;47353;51.614;5.530;2024-01-15T02:04:31;100223.41;;;0.08;100.00
59789;BME280;47353;51.614;5.530;2024-01-15T02:06:57;100221.03;;;0.11;100.00
59789;BME280;47353;51.614;5.530;2024-01-15T02:09:23;100222.50;;;0.14;100.00
59789;BME280;47353;51.614;5.530;2024-01-15T02:11:49;100219.78;;;0.14;100.00
59789;BME280;47353;51.614;5.530;2024-01-15T02:14:15;100217.06;;;0.14;100.00
59789;BME280;47353;51.614;5.530;2024-01-15T02:16:40;100212.66;;;0.13;100.00
59789;BME280;47353;51.614;5.530;2024-01-15T02:19:06;100212.75;;;0.06;100.00
59789;BME280;47353;51.614;5.530;2024-01-15T02:21:32;100208.72;;;0.09;100.00
59789;BME280;47353;51.614;5.530;2024-01-15T02:23:58;100220.00;;;0.12;100.00
59789;BME280;47353;51.614;5.530;2024-01-15T02:26:23;100216.50;;;0.05;100.00
59789;BME280;47353;51.614;5.530;2024-01-15T02:28:50;100212.97;;;0.05;100.00
59789;BME280;47353;51.614;5.530;2024-01-15T02:31:16;100211.94;;;-0.01;100.00
59789;BME280;47353;51.614;5.530;2024-01-15T02:33:42;100206.75;;;-0.03;100.00
59789;BME280;47353;51.614;5.530;2024-01-15T02:36:08;100201.28;;;-0.03;100.00
59789;BME280;47353;51.614;5.530;2024-01-15T02:38:33;100212.66;;;0.13;100.00
59789;BME280;47353;51.614;5.530;2024-01-15T02:40:58;100207.63;;;-0.09;100.00
59789;BME280;47353;51.614;5.530;2024-01-15T02:43:24;100209.84;;;0.01;100.00
59789;BME280;47353;51.614;5.530;2024-01-15T02:45:49;100202.09;;;0.05;100.00
59789;BME280;47353;51.614;5.530;2024-01-15T02:48:15;100210.19;;;-0.14;100.00
59789;BME280;47353;51.614;5.530;2024-01-15T02:50:40;100205.13;;;-0.10;100.00
59789;BME280;47353;51.614;5.530;2024-01-15T02:53:06;100205.53;;;-0.07;100.00
59789;BME280;47353;51.614;5.530;2024-01-15T02:55:31;100198.13;;;0.00;100.00
59789;BME280;47353;51.614;5.530;2024-01-15T02:57:57;100203.13;;;0.03;100.00
59789;BME280;47353;51.614;5.530;2024-01-15T03:00:22;100205.53;;;-0.07;100.00
59789;BME280;47353;51.614;5.530;2024-01-15T03:02:49;100206.66;;;-0.14;100.00
59789;BME280;47353;51.614;5.530;2024-01-15T03:05:15;100218.25;;;-0.25;100.00
59789;BME280;47353;51.614;5.530;2024-01-15T03:07:40;100216.69;;;-0.15;100.00
59789;BME280;47353;51.614;5.530;2024-01-15T03:10:06;100218.53;;;-0.33;100.00
59789;BME280;47353;51.614;5.530;2024-01-15T03:12:32;100210.28;;;-0.20;100.00
59789;BME280;47353;51.614;5.530;2024-01-15T03:14:57;100214.19;;;-0.16;100.00
59789;BME280;47353;51.614;5.530;2024-01-15T03:17:23;100208.72;;;0.09;100.00
59789;BME280;47353;51.614;5.530;2024-01-15T03:19:48;100213.78;;;0.05;100.00
59789;BME280;47353;51.614;5.530;2024-01-15T03:22:15;100207.63;;;-0.09;100.00
59789;BME280;47353;51.614;5.530;2024-01-15T03:24:40;100206.03;;;-0.16;100.00
59789;BME280;47353;51.614;5.530;2024-01-15T03:27:06;100205.03;;;0.03;100.00
59789;BME280;47353;51.614;5.530;2024-01-15T03:29:31;100206.50;;;-0.01;100.00
59789;BME280;47353;51.614;5.530;2024-01-15T03:31:56;100209.56;;;0.09;100.00
59789;BME280;47353;51.614;5.530;2024-01-15T03:34:22;100210.81;;;0.07;100.00
59789;BME280;47353;51.614;5.530;2024-01-15T03:36:47;100197.72;;;-0.03;100.00
59789;BME280;47353;51.614;5.530;2024-01-15T03:39:13;100194.66;;;-0.07;100.00
59789;BME280;47353;51.614;5.530;2024-01-15T03:41:38;100199.47;;;-0.09;100.00
59789;BME280;47353;51.614;5.530;2024-01-15T03:44:04;100194.66;;;-0.07;100.00
59789;BME280;47353;51.614;5.530;2024-01-15T03:46:29;100195.47;;;-0.06;100.00
59789;BME280;47353;51.614;5.530;2024-01-15T03:48:54;100193.41;;;-0.11;100.00
59789;BME280;47353;51.614;5.530;2024-01-15T03:51:20;100192.06;;;-0.02;100.00
59789;BME280;47353;51.614;5.530;2024-01-15T03:53:45;100191.25;;;-0.02;100.00
59789;BME280;47353;51.614;5.530;2024-01-15T03:56:11;100190.34;;;-0.14;100.00
59789;BME280;47353;51.614;5.530;2024-01-15T03:58:37;100190.25;;;-0.08;100.00
59789;BME280;47353;51.614;5.530;2024-01-15T04:01:02;100192.69;;;0.00;100.00
59789;BME280;47353;51.614;5.530;2024-01-15T04:03:28;100187.47;;;-0.01;100.00
59789;BME280;47353;51.614;5.530;2024-01-15T04:05:53;100177.16;;;0.08;100.00
59789;BME280;47353;51.614;5.530;2024-01-15T04:08:19;100177.06;;;0.14;100.00
59789;BME280;47353;51.614;5.530;2024-01-15T04:10:44;100166.66;;;0.29;100.00
59789;BME280;47353;51.614;5.530;2024-01-15T04:13:10;100163.69;;;0.13;100.00
59789;BME280;47353;51.614;5.530;2024-01-15T04:15:35;100165.72;;;0.17;100.00
59789;BME280;47353;51.614;5.530;2024-01-15T04:18:02;100164.22;;;0.21;100.00
59789;BME280;47353;51.614;5.530;2024-01-15T04:20:27;100165.50;;;0.37;100.00
59789;BME280;47353;51.614;5.530;2024-01-15T04:22:53;100160.59;;;0.27;100.00
59789;BME280;47353;51.614;5.530;2024-01-15T04:25:18;100157.50;;;0.42;100.00
59789;BME280;47353;51.614;5.530;2024-01-15T04:27:43;100167.59;;;0.53;100.00
59789;BME280;47353;51.614;5.530;2024-01-15T04:30:09;100160.19;;;0.60;100.00
59789;BME280;47353;51.614;5.530;2024-01-15T04:32:35;100162.63;;;0.50;100.00
59789;BME280;47353;51.614;5.530;2024-01-15T04:35:01;100155.44;;;0.55;100.00
59789;BME280;47353;51.614;5.530;2024-01-15T04:37:26;100155.47;;;0.67;100.00
59789;BME280;47353;51.614;5.530;2024-01-15T04:39:52;100155.03;;;0.70;100.00
59789;BME280;47353;51.614;5.530;2024-01-15T04:42:20;100155.47;;;0.67;100.00
59789;BME280;47353;51.614;5.530;2024-01-15T04:44:46;100143.16;;;0.64;100.00
59789;BME280;47353;51.614;5.530;2024-01-15T04:47:11;100138.22;;;0.73;100.00
59789;BME280;47353;51.614;5.530;2024-01-15T04:49:36;100142.63;;;0.56;100.00
59789;BME280;47353;51.614;5.530;2024-01-15T04:52:02;100140.47;;;0.46;100.00
59789;BME280;47353;51.614;5.530;2024-01-15T04:54:27;100143.84;;;0.60;100.00
59789;BME280;47353;51.614;5.530;2024-01-15T04:56:53;100141.69;;;0.50;100.00
59789;BME280;47353;51.614;5.530;2024-01-15T04:59:18;100137.59;;;0.41;100.00
59789;BME280;47353;51.614;5.530;2024-01-15T05:01:43;100144.16;;;0.52;100.00
59789;BME280;47353;51.614;5.530;2024-01-15T05:04:09;100141.06;;;0.48;100.00
59789;BME280;47353;51.614;5.530;2024-01-15T05:06:34;100147.03;;;0.39;100.00
59789;BME280;47353;51.614;5.530;2024-01-15T05:08:59;100144.63;;;0.49;100.00
59789;BME280;47353;51.614;5.530;2024-01-15T05:11:26;100155.66;;;0.36;100.00
59789;BME280;47353;51.614;5.530;2024-01-15T05:13:51;100143.56;;;0.50;100.00
59789;BME280;47353;51.614;5.530;2024-01-15T05:16:17;100150.25;;;0.65;100.00
59789;BME280;47353;51.614;5.530;2024-01-15T05:18:42;100140.56;;;0.40;100.00
59789;BME280;47353;51.614;5.530;2024-01-15T05:21:08;100147.72;;;0.34;100.00
59789;BME280;47353;51.614;5.530;2024-01-15T05:23:34;100133.53;;;0.32;100.00
59789;BME280;47353;51.614;5.530;2024-01-15T05:26:00;100132.69;;;0.32;100.00
59789;BME280;47353;51.614;5.530;2024-01-15T05:28:25;100128.97;;;0.44;100.00
59789;BME280;47353;51.614;5.530;2024-01-15T05:30:50;100132.69;;;0.32;100.00
59789;BME280;47353;51.614;5.530;2024-01-15T05:33:16;100126.50;;;0.43;100.00
59789;BME280;47353;51.614;5.530;2024-01-15T05:35:42;100119.91;;;0.50;100.00
59789;BME280;47353;51.614;5.530;2024-01-15T05:38:07;100126.50;;;0.43;100.00
59789;BME280;47353;51.614;5.530;2024-01-15T05:40:33;100126.34;;;0.38;100.00
59789;BME280;47353;51.614;5.530;2024-01-15T05:42:58;100127.44;;;0.66;100.00
59789;BME280;47353;51.614;5.530;2024-01-15T05:45:26;100128.06;;;0.50;100.00
59789;BME280;47353;51.614;5.530;2024-01-15T05:47:52;100132.88;;;0.66;100.00
59789;BME280;47353;51.614;5.530;2024-01-15T05:50:17;100125.19;;;0.63;100.00
59789;BME280;47353;51.614;5.530;2024-01-15T05:52:43;100130.19;;;0.78;100.00
59789;BME280;47353;51.614;5.530;2024-01-15T05:55:08;100128.66;;;0.82;100.00
59789;BME280;47353;51.614;5.530;2024-01-15T05:57:35;100119.16;;;0.73;100.00
59789;BME280;47353;51.614;5.530;2024-01-15T06:00:00;100124.47;;;0.68;100.00
59789;BME280;47353;51.614;5.530;2024-01-15T06:02:26;100120.84;;;0.56;100.00
59789;BME280;47353;51.614;5.530;2024-01-15T06:04:51;100124.84;;;0.42;100.00
59789;BME280;47353;51.614;5.530;2024-01-15T06:07:17;100124.22;;;0.40;100.00
59789;BME280;47353;51.614;5.530;2024-01-15T06:09:42;100127.91;;;0.63;100.00
59789;BME280;47353;51.614;5.530;2024-01-15T06:12:08;100110.16;;;0.43;100.00
59789;BME280;47353;51.614;5.530;2024-01-15T06:14:33;100108.69;;;0.40;100.00
59789;BME280;47353;51.614;5.530;2024-01-15T06:16:59;100098.06;;;0.21;100.00
59789;BME280;47353;51.614;5.530;2024-01-15T06:19:24;100102.31;;;0.35;100.00
59789;BME280;47353;51.614;5.530;2024-01-15T06:21:49;100097.69;;;0.17;100.00
59789;BME280;47353;51.614;5.530;2024-01-15T06:24:15;100100.78;;;0.21;100.00
59789;BME280;47353;51.614;5.530;2024-01-15T06:26:43;100100.66;;;0.16;100.00
59789;BME280;47353;51.614;5.530;2024-01-15T06:29:08;100095.59;;;0.19;100.00
59789;BME280;47353;51.614;5.530;2024-01-15T06:31:33;100104.97;;;0.23;100.00
59789;BME280;47353;51.614;5.530;2024-01-15T06:33:59;100093.63;;;0.08;100.00
59789;BME280;47353;51.614;5.530;2024-01-15T06:36:24;100099.53;;;0.23;100.00
59789;BME280;47353;51.614;5.530;2024-01-15T06:38:50;100104.88;;;0.12;100.00
59789;BME280;47353;51.614;5.530;2024-01-15T06:41:15;100087.44;;;0.01;100.00
59789;BME280;47353;51.614;5.530;2024-01-15T06:43:40;100104.00;;;-0.01;100.00
59789;BME280;47353;51.614;5.530;2024-01-15T06:46:06;100095.34;;;0.21;100.00
59789;BME280;47353;51.614;5.530;2024-01-15T06:48:31;100098.06;;;0.21;100.00
59789;BME280;47353;51.614;5.530;2024-01-15T06:50:56;100105.13;;;0.10;100.00
59789;BME280;47353;51.614;5.530;2024-01-15T06:53:22;100089.91;;;0.21;100.00
59789;BME280;47353;51.614;5.530;2024-01-15T06:55:48;100097.56;;;0.12;100.00
59789;BME280;47353;51.614;5.530;2024-01-15T06:58:14;100094.66;;;0.25;100.00
59789;BME280;47353;51.614;5.530;2024-01-15T07:00:39;100096.47;;;0.31;100.00
59789;BME280;47353;51.614;5.530;2024-01-15T07:03:05;100097.91;;;0.16;100.00
59789;BME280;47353;51.614;5.530;2024-01-15T07:05:31;100099.16;;;0.20;100.00
59789;BME280;47353;51.614;5.530;2024-01-15T07:07:57;100100.50;;;0.29;100.00
59789;BME280;47353;51.614;5.530;2024-01-15T07:10:22;100104.50;;;0.26;100.00
59789;BME280;47353;51.614;5.530;2024-01-15T07:12:48;100105.56;;;0.25;100.00
59789;BME280;47353;51.614;5.530;2024-01-15T07:15:14;100103.06;;;0.24;100.00
59789;BME280;47353;51.614;5.530;2024-01-15T07:17:39;100099.44;;;0.12;100.00
59789;BME280;47353;51.614;5.530;2024-01-15T07:20:06;100099.81;;;-0.03;100.00
59789;BME280;47353;51.614;5.530;2024-01-15T07:22:33;100078.56;;;0.24;100.00
59789;BME280;47353;51.614;5.530;2024-01-15T07:24:59;100087.97;;;0.28;100.00
59789;BME280;47353;51.614;5.530;2024-01-15T07:27:24;100085.00;;;0.11;100.00
59789;BME280;47353;51.614;5.530;2024-01-15T07:29:49;100100.50;;;0.29;100.00
59789;BME280;47353;51.614;5.530;2024-01-15T07:32:15;100098.59;;;0.11;100.00
59789;BME280;47353;51.614;5.530;2024-01-15T07:34:41;100111.00;;;0.25;100.00
59789;BME280;47353;51.614;5.530;2024-01-15T07:37:06;100117.56;;;0.18;100.00
59789;BME280;47353;51.614;5.530;2024-01-15T07:39:32;100119.47;;;-0.01;100.00
59789;BME280;47353;51.614;5.530;2024-01-15T07:41:58;100122.34;;;0.04;100.00
59789;BME280;47353;51.614;5.530;2024-01-15T07:44:23;100107.47;;;-0.12;100.00
59789;BME280;47353;51.614;5.530;2024-01-15T07:46:49;100114.31;;;-0.09;100.00
59789;BME280;47353;51.614;5.530;2024-01-15T07:49:14;100110.69;;;-0.03;100.00
59789;BME280;47353;51.614;5.530;2024-01-15T07:51:40;100120.53;;;-0.02;100.00
59789;BME280;47353;51.614;5.530;2024-01-15T07:54:06;100117.72;;;-0.14;100.00
59789;BME280;47353;51.614;5.530;2024-01-15T07:56:32;100124.28;;;-0.03;100.00
59789;BME280;47353;51.614;5.530;2024-01-15T07:58:57;100117.88;;;-0.09;100.00
59789;BME280;47353;51.614;5.530;2024-01-15T08:01:22;100115.84;;;0.23;100.00
59789;BME280;47353;51.614;5.530;2024-01-15T08:03:48;100118.56;;;0.23;100.00
59789;BME280;47353;51.614;5.530;2024-01-15T08:06:13;100137.53;;;-0.07;100.00
59789;BME280;47353;51.614;5.530;2024-01-15T08:08:39;100135.44;;;0.14;100.00
59789;BME280;47353;51.614;5.530;2024-01-15T08:11:05;100135.09;;;0.03;100.00
59789;BME280;47353;51.614;5.530;2024-01-15T08:13:30;100141.00;;;0.19;100.00
59789;BME280;47353;51.614;5.530;2024-01-15T08:15:56;100146.44;;;0.00;100.00
59789;BME280;47353;51.614;5.530;2024-01-15T08:18:21;100139.34;;;0.18;100.00
59789;BME280;47353;51.614;5.530;2024-01-15T08:20:47;100151.22;;;0.05;100.00
59789;BME280;47353;51.614;5.530;2024-01-15T08:23:13;100145.47;;;0.31;100.00
59789;BME280;47353;51.614;5.530;2024-01-15T08:25:38;100156.81;;;0.10;100.00
59789;BME280;47353;51.614;5.530;2024-01-15T08:28:04;100143.13;;;0.17;100.00
59789;BME280;47353;51.614;5.530;2024-01-15T08:30:29;100141.16;;;0.06;100.00
59789;BME280;47353;51.614;5.530;2024-01-15T08:32:55;100140.31;;;0.05;100.00
59789;BME280;47353;51.614;5.530;2024-01-15T08:35:21;100154.19;;;0.22;100.00
59789;BME280;47353;51.614;5.530;2024-01-15T08:37:50;100141.41;;;0.04;100.00
59789;BME280;47353;51.614;5.530;2024-01-15T08:40:16;100137.75;;;0.10;100.00
59789;BME280;47353;51.614;5.530;2024-01-15T08:42:42;100145.41;;;0.20;100.00
59789;BME280;47353;51.614;5.530;2024-01-15T08:45:08;100149.84;;;-0.04;100.00
59789;BME280;47353;51.614;5.530;2024-01-15T08:47:34;100152.22;;;0.11;100.00
59789;BME280;47353;51.614;5.530;2024-01-15T08:50:00;100151.75;;;0.14;100.00
59789;BME280;47353;51.614;5.530;2024-01-15T08:52:26;100154.31;;;0.09;100.00
59789;BME280;47353;51.614;5.530;2024-01-15T08:54:51;100154.03;;;0.17;100.00
59789;BME280;47353;51.614;5.530;2024-01-15T08:57:17;100147.75;;;0.16;100.00
59789;BME280;47353;51.614;5.530;2024-01-15T08:59:42;100155.38;;;0.08;100.00
59789;BME280;47353;51.614;5.530;2024-01-15T09:02:08;100146.44;;;0.19;100.00
59789;BME280;47353;51.614;5.530;2024-01-15T09:04:33;100154.84;;;0.35;100.00
59789;BME280;47353;51.614;5.530;2024-01-15T09:06:59;100162.69;;;0.25;100.00
59789;BME280;47353;51.614;5.530;2024-01-15T09:09:24;100162.31;;;0.03;100.00
59789;BME280;47353;51.614;5.530;2024-01-15T09:11:51;100163.16;;;0.04;100.00
59789;BME280;47353;51.614;5.530;2024-01-15T09:14:16;100161.88;;;0.07;100.00
59789;BME280;47353;51.614;5.530;2024-01-15T09:16:42;100156.06;;;0.21;100.00
59789;BME280;47353;51.614;5.530;2024-01-15T09:19:07;100162.19;;;0.35;100.00
59789;BME280;47353;51.614;5.530;2024-01-15T09:21:33;100152.59;;;0.32;100.00
59789;BME280;47353;51.614;5.530;2024-01-15T09:23:58;100152.72;;;0.37;100.00
59789;BME280;47353;51.614;5.530;2024-01-15T09:26:24;100142.97;;;0.30;100.00
59789;BME280;47353;51.614;5.530;2024-01-15T09:28:49;100145.69;;;0.48;100.00
59789;BME280;47353;51.614;5.530;2024-01-15T09:31:15;100149.09;;;0.43;100.00
59789;BME280;47353;51.614;5.530;2024-01-15T09:33:42;100147.31;;;0.67;100.00
59789;BME280;47353;51.614;5.530;2024-01-15T09:36:08;100139.09;;;0.55;100.00
59789;BME280;47353;51.614;5.530;2024-01-15T09:38:34;100141.56;;;0.75;100.00
59789;BME280;47353;51.614;5.530;2024-01-15T09:41:00;100137.81;;;0.58;100.00
59789;BME280;47353;51.614;5.530;2024-01-15T09:43:25;100145.19;;;0.69;100.00
59789;BME280;47353;51.614;5.530;2024-01-15T09:45:52;100150.75;;;0.92;100.00
59789;BME280;47353;51.614;5.530;2024-01-15T09:48:18;100155.91;;;0.82;100.00
59789;BME280;47353;51.614;5.530;2024-01-15T09:50:44;100162.78;;;1.14;100.00
59789;BME280;47353;51.614;5.530;2024-01-15T09:53:09;100166.56;;;1.13;100.00
59789;BME280;47353;51.614;5.530;2024-01-15T09:55:36;100160.25;;;1.01;100.00
59789;BME280;47353;51.614;5.530;2024-01-15T09:58:03;100161.22;;;1.06;100.00
59789;BME280;47353;51.614;5.530;2024-01-15T10:00:29;100163.59;;;1.14;100.00
59789;BME280;47353;51.614;5.530;2024-01-15T10:02:56;100164.34;;;1.21;100.00
59789;BME280;47353;51.614;5.530;2024-01-15T10:05:21;100155.47;;;1.37;100.00
59789;BME280;47353;51.614;5.530;2024-01-15T10:07:48;100151.91;;;2.41;100.00
59789;BME280;47353;51.614;5.530;2024-01-15T10:10:16;100147.00;;;3.22;100.00
59789;BME280;47353;51.614;5.530;2024-01-15T10:12:42;100156.25;;;3.21;100.00
59789;BME280;47353;51.614;5.530;2024-01-15T10:15:10;100161.00;;;4.68;100.00
59789;BME280;47353;51.614;5.530;2024-01-15T10:17:38;100172.97;;;4.40;100.00
59789;BME280;47353;51.614;5.530;2024-01-15T10:20:10;100168.00;;;3.99;100.00
59789;BME280;47353;51.614;5.530;2024-01-15T10:22:39;100178.59;;;3.63;100.00
59789;BME280;47353;51.614;5.530;2024-01-15T10:25:05;100173.09;;;3.29;100.00
59789;BME280;47353;51.614;5.530;2024-01-15T10:27:30;100177.81;;;3.17;100.00
59789;BME280;47353;51.614;5.530;2024-01-15T10:29:59;100174.03;;;3.07;100.00
59789;BME280;47353;51.614;5.530;2024-01-15T10:32:25;100182.06;;;2.85;100.00
59789;BME280;47353;51.614;5.530;2024-01-15T10:34:52;100189.06;;;2.53;100.00
59789;BME280;47353;51.614;5.530;2024-01-15T10:37:18;100194.06;;;2.33;100.00
59789;BME280;47353;51.614;5.530;2024-01-15T10:39:46;100188.41;;;2.23;100.00
59789;BME280;47353;51.614;5.530;2024-01-15T10:42:11;100182.00;;;2.06;100.00
59789;BME280;47353;51.614;5.530;2024-01-15T10:44:37;100178.56;;;1.88;100.00
59789;BME280;47353;51.614;5.530;2024-01-15T10:47:03;100163.13;;;1.70;100.00
59789;BME280;47353;51.614;5.530;2024-01-15T10:49:29;100167.16;;;1.79;100.00
59789;BME280;47353;51.614;5.530;2024-01-15T10:51:56;100162.78;;;1.78;100.00
59789;BME280;47353;51.614;5.530;2024-01-15T10:54:22;100153.72;;;2.35;100.00
59789;BME280;47353;51.614;5.530;2024-01-15T10:56:49;100159.34;;;3.24;100.00
59789;BME280;47353;51.614;5.530;2024-01-15T10:59:16;100160.81;;;4.31;100.00
59789;BME280;47353;51.614;5.530;2024-01-15T11:01:42;100181.44;;;5.52;100.00
59789;BME280;47353;51.614;5.530;2024-01-15T11:04:09;100176.25;;;5.55;100.00
59789;BME280;47353;51.614;5.530;2024-01-15T11:06:43;100170.72;;;5.50;100.00
59789;BME280;47353;51.614;5.530;2024-01-15T11:09:09;100178.94;;;5.50;100.00
59789;BME280;47353;51.614;5.530;2024-01-15T11:11:35;100182.81;;;6.17;100.00
59789;BME280;47353;51.614;5.530;2024-01-15T11:14:02;100176.69;;;6.05;99.99
59789;BME280;47353;51.614;5.530;2024-01-15T11:16:53;100171.44;;;7.02;100.00
59789;BME280;47353;51.614;5.530;2024-01-15T11:19:19;100166.63;;;8.44;91.40
59789;BME280;47353;51.614;5.530;2024-01-15T11:21:44;100167.78;;;9.89;88.12
59789;BME280;47353;51.614;5.530;2024-01-15T11:24:10;100166.41;;;10.49;78.21
59789;BME280;47353;51.614;5.530;2024-01-15T11:29:28;100160.56;;;8.12;79.21
59789;BME280;47353;51.614;5.530;2024-01-15T11:34:20;100177.88;;;5.03;95.58
59789;BME280;47353;51.614;5.530;2024-01-15T11:41:52;100170.03;;;3.42;100.00
59789;BME280;47353;51.614;5.530;2024-01-15T11:44:19;100167.91;;;3.44;100.00
59789;BME280;47353;51.614;5.530;2024-01-15T11:49:32;100170.41;;;3.96;100.00
59789;BME280;47353;51.614;5.530;2024-01-15T11:52:11;100183.25;;;4.93;100.00
59789;BME280;47353;51.614;5.530;2024-01-15T11:54:38;100175.41;;;4.58;100.00
59789;BME280;47353;51.614;5.530;2024-01-15T11:57:10;100184.94;;;4.34;100.00
59789;BME280;47353;51.614;5.530;2024-01-15T11:59:39;100187.84;;;3.73;100.00
59789;BME280;47353;51.614;5.530;2024-01-15T12:02:06;100181.03;;;4.68;100.00
59789;BME280;47353;51.614;5.530;2024-01-15T12:04:32;100188.38;;;4.25;100.00
59789;BME280;47353;51.614;5.530;2024-01-15T12:06:57;100193.88;;;3.75;100.00
59789;BME280;47353;51.614;5.530;2024-01-15T12:09:22;100198.34;;;3.48;100.00
59789;BME280;47353;51.614;5.530;2024-01-15T12:11:55;100194.41;;;3.44;100.00
59789;BME280;47353;51.614;5.530;2024-01-15T12:14:24;100195.50;;;2.87;100.00
59789;BME280;47353;51.614;5.530;2024-01-15T12:16:50;100198.50;;;2.34;100.00
59789;BME280;47353;51.614;5.530;2024-01-15T12:19:16;100203.47;;;2.26;100.00
59789;BME280;47353;51.614;5.530;2024-01-15T12:21:41;100205.84;;;2.22;100.00
59789;BME280;47353;51.614;5.530;2024-01-15T12:24:07;100217.34;;;2.24;100.00
59789;BME280;47353;51.614;5.530;2024-01-15T12:26:33;100219.50;;;2.34;100.00
59789;BME280;47353;51.614;5.530;2024-01-15T12:29:02;100227.09;;;2.09;100.00
59789;BME280;47353;51.614;5.530;2024-01-15T12:31:27;100230.16;;;1.89;100.00
59789;BME280;47353;51.614;5.530;2024-01-15T12:33:53;100234.44;;;1.97;100.00
59789;BME280;47353;51.614;5.530;2024-01-15T12:36:21;100236.34;;;2.08;100.00
59789;BME280;47353;51.614;5.530;2024-01-15T12:38:47;100237.47;;;1.54;100.00
59789;BME280;47353;51.614;5.530;2024-01-15T12:41:12;100235.97;;;1.81;100.00
59789;BME280;47353;51.614;5.530;2024-01-15T12:43:38;100246.81;;;1.58;100.00
59789;BME280;47353;51.614;5.530;2024-01-15T12:46:03;100254.56;;;1.31;100.00
59789;BME280;47353;51.614;5.530;2024-01-15T12:48:29;100254.75;;;1.18;100.00
59789;BME280;47353;51.614;5.530;2024-01-15T12:50:55;100246.53;;;1.36;100.00
59789;BME280;47353;51.614;5.530;2024-01-15T12:53:20;100234.91;;;1.29;100.00